sensor_id;sensor_type;location;lat;lon;timestamp;P1;durP1;ratioP1;P2;durP2;ratioP2
45114;SDS011;30877;43.706;10.780;2023-03-04T00:01:04;12.15;;;8.88;;
45114;SDS011;30877;43.706;10.780;2023-03-04T00:03:32;10.13;;;8.43;;
45114;SDS011;30877;43.706;10.780;2023-03-04T00:06:02;56.60;;;27.15;;
45114;SDS011;30877;43.706;10.780;2023-03-04T00:08:31;20.42;;;11.80;;
45114;SDS011;30877;43.706;10.780;2023-03-04T00:10:59;29.10;;;16.05;;
45114;SDS011;30877;43.706;10.780;2023-03-04T00:13:28;22.15;;;13.05;;
45114;SDS011;30877;43.706;10.780;2023-03-04T00:15:56;17.75;;;10.38;;
45114;SDS011;30877;43.706;10.780;2023-03-04T00:18:24;17.42;;;9.82;;
45114;SDS011;30877;43.706;10.780;2023-03-04T00:20:52;14.95;;;9.55;;
45114;SDS011;30877;43.706;10.780;2023-03-04T00:23:22;16.15;;;10.35;;
45114;SDS011;30877;43.706;10.780;2023-03-04T00:25:50;12.73;;;9.55;;
45114;SDS011;30877;43.706;10.780;2023-03-04T00:28:18;14.25;;;9.95;;
45114;SDS011;30877;43.706;10.780;2023-03-04T00:30:46;13.05;;;9.30;;
45114;SDS011;30877;43.706;10.780;2023-03-04T00:33:14;12.00;;;8.55;;
45114;SDS011;30877;43.706;10.780;2023-03-04T00:35:43;12.52;;;8.90;;
45114;SDS011;30877;43.706;10.780;2023-03-04T00:38:11;11.90;;;9.13;;
45114;SDS011;30877;43.706;10.780;2023-03-04T00:40:42;12.95;;;9.05;;
45114;SDS011;30877;43.706;10.780;2023-03-04T00:43:10;11.80;;;9.75;;
45114;SDS011;30877;43.706;10.780;2023-03-04T00:45:38;14.52;;;9.95;;
45114;SDS011;30877;43.706;10.780;2023-03-04T00:48:06;12.35;;;8.82;;
45114;SDS011;30877;43.706;10.780;2023-03-04T00:50:34;11.88;;;9.25;;
45114;SDS011;30877;43.706;10.780;2023-03-04T00:53:06;15.45;;;10.27;;
45114;SDS011;30877;43.706;10.780;2023-03-04T00:55:34;12.57;;;8.93;;
45114;SDS011;30877;43.706;10.780;2023-03-04T00:58:03;14.48;;;9.50;;
45114;SDS011;30877;43.706;10.780;2023-03-04T01:00:32;15.48;;;10.70;;
45114;SDS011;30877;43.706;10.780;2023-03-04T01:03:00;14.77;;;10.25;;
45114;SDS011;30877;43.706;10.780;2023-03-04T01:05:28;15.68;;;10.52;;
45114;SDS011;30877;43.706;10.780;2023-03-04T01:07:56;14.63;;;9.77;;
45114;SDS011;30877;43.706;10.780;2023-03-04T01:10:26;13.25;;;9.90;;
45114;SDS011;30877;43.706;10.780;2023-03-04T01:12:55;14.32;;;9.48;;
45114;SDS011;30877;43.706;10.780;2023-03-04T01:15:24;13.00;;;9.23;;
45114;SDS011;30877;43.706;10.780;2023-03-04T01:17:52;12.07;;;8.68;;
45114;SDS011;30877;43.706;10.780;2023-03-04T01:20:21;12.77;;;8.90;;
45114;SDS011;30877;43.706;10.780;2023-03-04T01:22:49;11.75;;;8.52;;
45114;SDS011;30877;43.706;10.780;2023-03-04T01:25:17;12.25;;;8.77;;
45114;SDS011;30877;43.706;10.780;2023-03-04T01:27:45;12.20;;;8.43;;
45114;SDS011;30877;43.706;10.780;2023-03-04T01:30:13;11.95;;;8.48;;
45114;SDS011;30877;43.706;10.780;2023-03-04T01:32:43;10.35;;;8.05;;
45114;SDS011;30877;43.706;10.780;2023-03-04T01:35:11;10.95;;;8.60;;
45114;SDS011;30877;43.706;10.780;2023-03-04T01:37:39;10.15;;;7.82;;
45114;SDS011;30877;43.706;10.780;2023-03-04T01:40:09;12.63;;;8.45;;
45114;SDS011;30877;43.706;10.780;2023-03-04T01:42:39;10.85;;;8.25;;
45114;SDS011;30877;43.706;10.780;2023-03-04T01:45:10;11.75;;;8.32;;
45114;SDS011;30877;43.706;10.780;2023-03-04T01:47:43;11.55;;;8.57;;
45114;SDS011;30877;43.706;10.780;2023-03-04T01:50:16;12.40;;;8.82;;
45114;SDS011;30877;43.706;10.780;2023-03-04T01:52:46;11.07;;;7.53;;
45114;SDS011;30877;43.706;10.780;2023-03-04T01:55:15;8.40;;;6.50;;
45114;SDS011;30877;43.706;10.780;2023-03-04T01:57:45;8.60;;;6.60;;
45114;SDS011;30877;43.706;10.780;2023-03-04T02:00:20;8.93;;;6.32;;
45114;SDS011;30877;43.706;10.780;2023-03-04T02:02:56;6.90;;;5.60;;
45114;SDS011;30877;43.706;10.780;2023-03-04T02:05:27;7.72;;;6.15;;
45114;SDS011;30877;43.706;10.780;2023-03-04T02:07:56;8.57;;;5.57;;
45114;SDS011;30877;43.706;10.780;2023-03-04T02:10:26;9.40;;;5.50;;
45114;SDS011;30877;43.706;10.780;2023-03-04T02:12:54;6.00;;;4.50;;
45114;SDS011;30877;43.706;10.780;2023-03-04T02:15:23;7.07;;;4.80;;
45114;SDS011;30877;43.706;10.780;2023-03-04T02:17:51;5.35;;;4.18;;
45114;SDS011;30877;43.706;10.780;2023-03-04T02:20:27;9.68;;;5.90;;
45114;SDS011;30877;43.706;10.780;2023-03-04T02:23:03;7.88;;;4.88;;
45114;SDS011;30877;43.706;10.780;2023-03-04T02:25:38;7.03;;;5.00;;
45114;SDS011;30877;43.706;10.780;2023-03-04T02:28:24;6.70;;;4.82;;
45114;SDS011;30877;43.706;10.780;2023-03-04T02:31:04;7.93;;;4.60;;
45114;SDS011;30877;43.706;10.780;2023-03-04T02:33:55;6.80;;;4.80;;
45114;SDS011;30877;43.706;10.780;2023-03-04T02:36:26;6.45;;;4.70;;
45114;SDS011;30877;43.706;10.780;2023-03-04T02:38:58;7.85;;;4.68;;
45114;SDS011;30877;43.706;10.780;2023-03-04T02:41:29;5.72;;;4.35;;
45114;SDS011;30877;43.706;10.780;2023-03-04T02:44:00;7.25;;;4.28;;
45114;SDS011;30877;43.706;10.780;2023-03-04T02:46:28;8.68;;;4.43;;
45114;SDS011;30877;43.706;10.780;2023-03-04T02:48:56;5.45;;;4.00;;
45114;SDS011;30877;43.706;10.780;2023-03-04T02:51:27;6.13;;;4.40;;
45114;SDS011;30877;43.706;10.780;2023-03-04T02:53:55;6.50;;;4.47;;
45114;SDS011;30877;43.706;10.780;2023-03-04T02:56:23;7.97;;;4.60;;
45114;SDS011;30877;43.706;10.780;2023-03-04T02:58:51;8.02;;;4.30;;
45114;SDS011;30877;43.706;10.780;2023-03-04T03:01:21;5.00;;;4.28;;
45114;SDS011;30877;43.706;10.780;2023-03-04T03:03:49;6.57;;;4.60;;
45114;SDS011;30877;43.706;10.780;2023-03-04T03:06:17;6.70;;;4.38;;
45114;SDS011;30877;43.706;10.780;2023-03-04T03:08:45;7.70;;;4.57;;
45114;SDS011;30877;43.706;10.780;2023-03-04T03:11:14;8.38;;;4.60;;
45114;SDS011;30877;43.706;10.780;2023-03-04T03:13:44;6.00;;;4.40;;
45114;SDS011;30877;43.706;10.780;2023-03-04T03:16:13;6.57;;;4.47;;
45114;SDS011;30877;43.706;10.780;2023-03-04T03:18:43;8.63;;;4.38;;
45114;SDS011;30877;43.706;10.780;2023-03-04T03:21:11;7.32;;;4.50;;
45114;SDS011;30877;43.706;10.780;2023-03-04T03:23:39;6.93;;;4.45;;
45114;SDS011;30877;43.706;10.780;2023-03-04T03:26:09;8.05;;;4.53;;
45114;SDS011;30877;43.706;10.780;2023-03-04T03:28:37;6.78;;;4.85;;
45114;SDS011;30877;43.706;10.780;2023-03-04T03:31:05;6.03;;;4.82;;
45114;SDS011;30877;43.706;10.780;2023-03-04T03:33:34;7.82;;;4.53;;
45114;SDS011;30877;43.706;10.780;2023-03-04T03:36:03;9.90;;;5.03;;
45114;SDS011;30877;43.706;10.780;2023-03-04T03:38:32;5.65;;;4.47;;
45114;SDS011;30877;43.706;10.780;2023-03-04T03:41:01;6.75;;;4.63;;
45114;SDS011;30877;43.706;10.780;2023-03-04T03:43:29;7.03;;;4.20;;
45114;SDS011;30877;43.706;10.780;2023-03-04T03:45:57;6.28;;;4.43;;
45114;SDS011;30877;43.706;10.780;2023-03-04T03:48:25;7.03;;;4.45;;
45114;SDS011;30877;43.706;10.780;2023-03-04T03:50:53;5.10;;;4.05;;
45114;SDS011;30877;43.706;10.780;2023-03-04T03:53:23;6.22;;;4.25;;
45114;SDS011;30877;43.706;10.780;2023-03-04T03:55:51;11.23;;;4.93;;
45114;SDS011;30877;43.706;10.780;2023-03-04T03:58:19;5.40;;;3.65;;
45114;SDS011;30877;43.706;10.780;2023-03-04T04:00:47;8.60;;;4.63;;
45114;SDS011;30877;43.706;10.780;2023-03-04T04:03:16;5.68;;;4.03;;
45114;SDS011;30877;43.706;10.780;2023-03-04T04:05:44;6.22;;;4.55;;
45114;SDS011;30877;43.706;10.780;2023-03-04T04:08:12;7.63;;;4.45;;
45114;SDS011;30877;43.706;10.780;2023-03-04T04:10:42;5.57;;;3.60;;
45114;SDS011;30877;43.706;10.780;2023-03-04T04:13:11;5.90;;;4.03;;
45114;SDS011;30877;43.706;10.780;2023-03-04T04:15:39;6.15;;;4.05;;
45114;SDS011;30877;43.706;10.780;2023-03-04T04:18:07;7.63;;;4.32;;
45114;SDS011;30877;43.706;10.780;2023-03-04T04:20:35;7.47;;;4.30;;
45114;SDS011;30877;43.706;10.780;2023-03-04T04:23:03;7.15;;;4.32;;
45114;SDS011;30877;43.706;10.780;2023-03-04T04:25:32;6.30;;;4.30;;
45114;SDS011;30877;43.706;10.780;2023-03-04T04:28:01;5.47;;;3.92;;
45114;SDS011;30877;43.706;10.780;2023-03-04T04:30:29;7.10;;;4.32;;
45114;SDS011;30877;43.706;10.780;2023-03-04T04:32:58;6.13;;;4.22;;
45114;SDS011;30877;43.706;10.780;2023-03-04T04:35:27;6.45;;;4.07;;
45114;SDS011;30877;43.706;10.780;2023-03-04T04:37:56;6.03;;;4.07;;
45114;SDS011;30877;43.706;10.780;2023-03-04T04:40:24;6.28;;;4.90;;
45114;SDS011;30877;43.706;10.780;2023-03-04T04:42:52;6.60;;;4.00;;
45114;SDS011;30877;43.706;10.780;2023-03-04T04:45:22;8.45;;;4.47;;
45114;SDS011;30877;43.706;10.780;2023-03-04T04:47:53;7.35;;;4.53;;
45114;SDS011;30877;43.706;10.780;2023-03-04T04:50:23;6.72;;;4.32;;
45114;SDS011;30877;43.706;10.780;2023-03-04T04:52:51;7.45;;;4.75;;
45114;SDS011;30877;43.706;10.780;2023-03-04T04:55:20;8.38;;;4.93;;
45114;SDS011;30877;43.706;10.780;2023-03-04T04:57:48;6.30;;;4.25;;
45114;SDS011;30877;43.706;10.780;2023-03-04T05:00:16;7.22;;;4.72;;
45114;SDS011;30877;43.706;10.780;2023-03-04T05:02:46;8.40;;;5.70;;
45114;SDS011;30877;43.706;10.780;2023-03-04T05:05:15;7.85;;;5.63;;
45114;SDS011;30877;43.706;10.780;2023-03-04T05:07:43;7.53;;;5.25;;
45114;SDS011;30877;43.706;10.780;2023-03-04T05:10:11;8.02;;;5.40;;
45114;SDS011;30877;43.706;10.780;2023-03-04T05:12:39;7.57;;;5.78;;
45114;SDS011;30877;43.706;10.780;2023-03-04T05:15:07;7.35;;;5.75;;
45114;SDS011;30877;43.706;10.780;2023-03-04T05:17:36;8.60;;;5.82;;
45114;SDS011;30877;43.706;10.780;2023-03-04T05:20:06;6.28;;;5.15;;
45114;SDS011;30877;43.706;10.780;2023-03-04T05:22:35;7.88;;;5.15;;
45114;SDS011;30877;43.706;10.780;2023-03-04T05:25:04;7.70;;;5.40;;
45114;SDS011;30877;43.706;10.780;2023-03-04T05:27:32;6.65;;;5.05;;
45114;SDS011;30877;43.706;10.780;2023-03-04T05:30:00;7.85;;;5.47;;
45114;SDS011;30877;43.706;10.780;2023-03-04T05:32:28;9.63;;;5.55;;
45114;SDS011;30877;43.706;10.780;2023-03-04T05:34:56;6.47;;;4.97;;
45114;SDS011;30877;43.706;10.780;2023-03-04T05:37:26;9.05;;;5.50;;
45114;SDS011;30877;43.706;10.780;2023-03-04T05:39:54;7.43;;;5.28;;
45114;SDS011;30877;43.706;10.780;2023-03-04T05:42:22;8.45;;;5.57;;
45114;SDS011;30877;43.706;10.780;2023-03-04T05:44:50;9.23;;;5.72;;
45114;SDS011;30877;43.706;10.780;2023-03-04T05:47:18;8.18;;;5.30;;
45114;SDS011;30877;43.706;10.780;2023-03-04T05:49:46;7.22;;;5.32;;
45114;SDS011;30877;43.706;10.780;2023-03-04T05:52:14;9.25;;;5.65;;
45114;SDS011;30877;43.706;10.780;2023-03-04T05:54:44;7.50;;;6.25;;
45114;SDS011;30877;43.706;10.780;2023-03-04T05:57:12;9.55;;;6.07;;
45114;SDS011;30877;43.706;10.780;2023-03-04T05:59:40;7.90;;;5.85;;
45114;SDS011;30877;43.706;10.780;2023-03-04T06:02:07;10.23;;;6.45;;
45114;SDS011;30877;43.706;10.780;2023-03-04T06:04:35;9.50;;;6.32;;
45114;SDS011;30877;43.706;10.780;2023-03-04T06:07:03;9.27;;;6.30;;
45114;SDS011;30877;43.706;10.780;2023-03-04T06:09:31;10.52;;;6.40;;
45114;SDS011;30877;43.706;10.780;2023-03-04T06:12:01;11.38;;;6.38;;
45114;SDS011;30877;43.706;10.780;2023-03-04T06:14:29;9.80;;;6.97;;
45114;SDS011;30877;43.706;10.780;2023-03-04T06:16:57;8.48;;;6.30;;
45114;SDS011;30877;43.706;10.780;2023-03-04T06:19:25;8.88;;;6.53;;
45114;SDS011;30877;43.706;10.780;2023-03-04T06:21:53;11.45;;;6.75;;
45114;SDS011;30877;43.706;10.780;2023-03-04T06:24:20;15.25;;;8.82;;
45114;SDS011;30877;43.706;10.780;2023-03-04T06:26:49;15.63;;;9.50;;
45114;SDS011;30877;43.706;10.780;2023-03-04T06:29:18;17.23;;;10.15;;
45114;SDS011;30877;43.706;10.780;2023-03-04T06:31:46;16.83;;;10.32;;
45114;SDS011;30877;43.706;10.780;2023-03-04T06:34:14;18.60;;;9.57;;
45114;SDS011;30877;43.706;10.780;2023-03-04T06:36:42;15.90;;;10.15;;
45114;SDS011;30877;43.706;10.780;2023-03-04T06:39:10;18.85;;;10.73;;
45114;SDS011;30877;43.706;10.780;2023-03-04T06:41:38;16.23;;;9.90;;
45114;SDS011;30877;43.706;10.780;2023-03-04T06:44:06;16.48;;;10.38;;
45114;SDS011;30877;43.706;10.780;2023-03-04T06:46:36;15.43;;;10.80;;
45114;SDS011;30877;43.706;10.780;2023-03-04T06:49:04;16.75;;;11.02;;
45114;SDS011;30877;43.706;10.780;2023-03-04T06:51:32;13.90;;;10.63;;
45114;SDS011;30877;43.706;10.780;2023-03-04T06:54:00;17.92;;;10.77;;
45114;SDS011;30877;43.706;10.780;2023-03-04T06:56:28;15.40;;;10.93;;
45114;SDS011;30877;43.706;10.780;2023-03-04T06:58:56;15.23;;;10.73;;
45114;SDS011;30877;43.706;10.780;2023-03-04T07:01:25;16.08;;;10.32;;
45114;SDS011;30877;43.706;10.780;2023-03-04T07:03:56;16.67;;;10.80;;
45114;SDS011;30877;43.706;10.780;2023-03-04T07:06:25;14.85;;;10.75;;
45114;SDS011;30877;43.706;10.780;2023-03-04T07:08:54;14.02;;;10.07;;
45114;SDS011;30877;43.706;10.780;2023-03-04T07:11:23;14.63;;;9.82;;
45114;SDS011;30877;43.706;10.780;2023-03-04T07:13:52;13.45;;;9.88;;
45114;SDS011;30877;43.706;10.780;2023-03-04T07:16:21;13.95;;;9.32;;
45114;SDS011;30877;43.706;10.780;2023-03-04T07:18:49;13.63;;;9.80;;
45114;SDS011;30877;43.706;10.780;2023-03-04T07:21:19;13.88;;;9.85;;
45114;SDS011;30877;43.706;10.780;2023-03-04T07:23:47;14.57;;;9.90;;
45114;SDS011;30877;43.706;10.780;2023-03-04T07:26:15;14.52;;;10.20;;
45114;SDS011;30877;43.706;10.780;2023-03-04T07:28:43;15.27;;;10.13;;
45114;SDS011;30877;43.706;10.780;2023-03-04T07:31:12;13.70;;;9.43;;
45114;SDS011;30877;43.706;10.780;2023-03-04T07:34:02;13.73;;;9.25;;
45114;SDS011;30877;43.706;10.780;2023-03-04T07:36:34;15.35;;;10.00;;
45114;SDS011;30877;43.706;10.780;2023-03-04T07:39:03;12.85;;;9.18;;
45114;SDS011;30877;43.706;10.780;2023-03-04T07:41:43;15.75;;;9.25;;
45114;SDS011;30877;43.706;10.780;2023-03-04T07:44:11;12.32;;;9.05;;
45114;SDS011;30877;43.706;10.780;2023-03-04T07:46:39;12.70;;;8.05;;
45114;SDS011;30877;43.706;10.780;2023-03-04T07:49:07;12.25;;;9.20;;
45114;SDS011;30877;43.706;10.780;2023-03-04T07:51:39;11.50;;;8.07;;
45114;SDS011;30877;43.706;10.780;2023-03-04T07:54:08;10.90;;;7.38;;
45114;SDS011;30877;43.706;10.780;2023-03-04T07:56:36;9.05;;;7.28;;
45114;SDS011;30877;43.706;10.780;2023-03-04T07:59:04;12.35;;;9.10;;
45114;SDS011;30877;43.706;10.780;2023-03-04T08:01:33;11.18;;;8.25;;
45114;SDS011;30877;43.706;10.780;2023-03-04T08:04:03;10.90;;;8.00;;
45114;SDS011;30877;43.706;10.780;2023-03-04T08:06:31;11.43;;;7.88;;
45114;SDS011;30877;43.706;10.780;2023-03-04T08:09:02;13.38;;;8.02;;
45114;SDS011;30877;43.706;10.780;2023-03-04T08:11:32;11.75;;;7.45;;
45114;SDS011;30877;43.706;10.780;2023-03-04T08:14:02;13.35;;;7.60;;
45114;SDS011;30877;43.706;10.780;2023-03-04T08:16:30;10.15;;;7.05;;
45114;SDS011;30877;43.706;10.780;2023-03-04T08:19:01;11.90;;;7.65;;
45114;SDS011;30877;43.706;10.780;2023-03-04T08:21:30;11.85;;;7.05;;
45114;SDS011;30877;43.706;10.780;2023-03-04T08:23:58;11.48;;;6.43;;
45114;SDS011;30877;43.706;10.780;2023-03-04T08:26:30;9.23;;;5.97;;
45114;SDS011;30877;43.706;10.780;2023-03-04T08:29:01;13.45;;;8.63;;
45114;SDS011;30877;43.706;10.780;2023-03-04T08:31:30;9.90;;;5.43;;
45114;SDS011;30877;43.706;10.780;2023-03-04T08:33:59;8.40;;;4.05;;
45114;SDS011;30877;43.706;10.780;2023-03-04T08:36:28;6.18;;;3.28;;
45114;SDS011;30877;43.706;10.780;2023-03-04T08:38:56;8.75;;;3.78;;
45114;SDS011;30877;43.706;10.780;2023-03-04T08:41:24;5.88;;;3.13;;
45114;SDS011;30877;43.706;10.780;2023-03-04T08:43:54;4.93;;;3.38;;
45114;SDS011;30877;43.706;10.780;2023-03-04T08:46:23;9.18;;;3.60;;
45114;SDS011;30877;43.706;10.780;2023-03-04T08:48:51;11.02;;;3.65;;
45114;SDS011;30877;43.706;10.780;2023-03-04T08:51:19;6.07;;;3.28;;
45114;SDS011;30877;43.706;10.780;2023-03-04T08:53:47;5.40;;;2.72;;
45114;SDS011;30877;43.706;10.780;2023-03-04T08:56:15;8.02;;;3.30;;
45114;SDS011;30877;43.706;10.780;2023-03-04T08:58:44;8.18;;;3.30;;
45114;SDS011;30877;43.706;10.780;2023-03-04T09:01:14;7.03;;;3.10;;
45114;SDS011;30877;43.706;10.780;2023-03-04T09:03:42;6.85;;;2.80;;
45114;SDS011;30877;43.706;10.780;2023-03-04T09:06:11;7.20;;;3.83;;
45114;SDS011;30877;43.706;10.780;2023-03-04T09:08:41;6.22;;;3.50;;
45114;SDS011;30877;43.706;10.780;2023-03-04T09:11:10;9.85;;;4.47;;
45114;SDS011;30877;43.706;10.780;2023-03-04T09:13:39;6.40;;;3.08;;
45114;SDS011;30877;43.706;10.780;2023-03-04T09:16:08;9.43;;;4.20;;
45114;SDS011;30877;43.706;10.780;2023-03-04T09:18:38;9.60;;;6.03;;
45114;SDS011;30877;43.706;10.780;2023-03-04T09:21:07;9.57;;;5.38;;
45114;SDS011;30877;43.706;10.780;2023-03-04T09:23:36;7.18;;;3.35;;
45114;SDS011;30877;43.706;10.780;2023-03-04T09:26:14;8.98;;;3.58;;
45114;SDS011;30877;43.706;10.780;2023-03-04T09:28:44;5.07;;;3.60;;
45114;SDS011;30877;43.706;10.780;2023-03-04T09:31:15;11.18;;;3.75;;
45114;SDS011;30877;43.706;10.780;2023-03-04T09:33:44;9.27;;;3.78;;
45114;SDS011;30877;43.706;10.780;2023-03-04T09:36:13;8.38;;;3.78;;
45114;SDS011;30877;43.706;10.780;2023-03-04T09:38:41;11.50;;;4.50;;
45114;SDS011;30877;43.706;10.780;2023-03-04T09:41:12;6.60;;;4.03;;
45114;SDS011;30877;43.706;10.780;2023-03-04T09:43:54;6.25;;;3.35;;
45114;SDS011;30877;43.706;10.780;2023-03-04T09:46:26;6.97;;;3.08;;
45114;SDS011;30877;43.706;10.780;2023-03-04T09:49:02;7.45;;;3.78;;
45114;SDS011;30877;43.706;10.780;2023-03-04T09:51:39;6.47;;;3.72;;
45114;SDS011;30877;43.706;10.780;2023-03-04T09:54:14;4.93;;;2.90;;
45114;SDS011;30877;43.706;10.780;2023-03-04T09:56:51;6.35;;;3.25;;
45114;SDS011;30877;43.706;10.780;2023-03-04T09:59:26;7.40;;;2.65;;
45114;SDS011;30877;43.706;10.780;2023-03-04T10:01:59;4.55;;;3.30;;
45114;SDS011;30877;43.706;10.780;2023-03-04T10:04:41;5.90;;;3.22;;
45114;SDS011;30877;43.706;10.780;2023-03-04T10:07:16;9.68;;;3.25;;
45114;SDS011;30877;43.706;10.780;2023-03-04T10:09:50;7.25;;;4.03;;
45114;SDS011;30877;43.706;10.780;2023-03-04T10:12:23;7.50;;;3.33;;
45114;SDS011;30877;43.706;10.780;2023-03-04T10:14:57;7.38;;;3.20;;
45114;SDS011;30877;43.706;10.780;2023-03-04T10:17:28;6.68;;;3.58;;
45114;SDS011;30877;43.706;10.780;2023-03-04T10:20:10;6.03;;;3.05;;
45114;SDS011;30877;43.706;10.780;2023-03-04T10:22:45;4.50;;;2.95;;
45114;SDS011;30877;43.706;10.780;2023-03-04T10:25:16;8.73;;;3.28;;
45114;SDS011;30877;43.706;10.780;2023-03-04T10:27:50;6.72;;;2.88;;
45114;SDS011;30877;43.706;10.780;2023-03-04T10:30:25;8.65;;;3.60;;
45114;SDS011;30877;43.706;10.780;2023-03-04T10:32:58;6.68;;;3.42;;
45114;SDS011;30877;43.706;10.780;2023-03-04T10:35:30;6.82;;;3.17;;
45114;SDS011;30877;43.706;10.780;2023-03-04T10:38:03;5.20;;;3.38;;
45114;SDS011;30877;43.706;10.780;2023-03-04T10:40:35;9.75;;;3.90;;
45114;SDS011;30877;43.706;10.780;2023-03-04T10:43:11;5.55;;;3.08;;
45114;SDS011;30877;43.706;10.780;2023-03-04T10:48:17;5.57;;;3.10;;
45114;SDS011;30877;43.706;10.780;2023-03-04T10:50:49;6.30;;;3.13;;
45114;SDS011;30877;43.706;10.780;2023-03-04T10:53:23;6.72;;;3.47;;
45114;SDS011;30877;43.706;10.780;2023-03-04T10:55:56;5.13;;;3.08;;
45114;SDS011;30877;43.706;10.780;2023-03-04T10:58:24;5.60;;;3.97;;
45114;SDS011;30877;43.706;10.780;2023-03-04T11:00:58;4.95;;;2.95;;
45114;SDS011;30877;43.706;10.780;2023-03-04T11:03:29;6.75;;;3.53;;
45114;SDS011;30877;43.706;10.780;2023-03-04T11:06:10;6.72;;;2.92;;
45114;SDS011;30877;43.706;10.780;2023-03-04T11:08:43;7.93;;;3.10;;
45114;SDS011;30877;43.706;10.780;2023-03-04T11:11:23;6.90;;;3.28;;
45114;SDS011;30877;43.706;10.780;2023-03-04T11:13:57;7.63;;;2.90;;
45114;SDS011;30877;43.706;10.780;2023-03-04T11:16:28;7.20;;;3.63;;
45114;SDS011;30877;43.706;10.780;2023-03-04T11:18:58;6.35;;;2.67;;
45114;SDS011;30877;43.706;10.780;2023-03-04T11:21:35;5.28;;;2.67;;
45114;SDS011;30877;43.706;10.780;2023-03-04T11:24:08;6.32;;;2.78;;
45114;SDS011;30877;43.706;10.780;2023-03-04T11:26:55;6.10;;;2.88;;
45114;SDS011;30877;43.706;10.780;2023-03-04T11:29:30;6.93;;;3.10;;
45114;SDS011;30877;43.706;10.780;2023-03-04T11:32:04;4.95;;;2.70;;
45114;SDS011;30877;43.706;10.780;2023-03-04T11:34:38;5.97;;;2.60;;
45114;SDS011;30877;43.706;10.780;2023-03-04T11:37:14;5.65;;;2.92;;
45114;SDS011;30877;43.706;10.780;2023-03-04T11:39:48;5.43;;;2.25;;
45114;SDS011;30877;43.706;10.780;2023-03-04T11:42:27;6.20;;;3.00;;
45114;SDS011;30877;43.706;10.780;2023-03-04T11:45:02;4.95;;;2.90;;
45114;SDS011;30877;43.706;10.780;2023-03-04T11:47:34;5.78;;;2.38;;
45114;SDS011;30877;43.706;10.780;2023-03-04T11:53:12;6.25;;;2.85;;
45114;SDS011;30877;43.706;10.780;2023-03-04T11:56:09;4.88;;;2.50;;
45114;SDS011;30877;43.706;10.780;2023-03-04T11:58:55;8.45;;;2.30;;
45114;SDS011;30877;43.706;10.780;2023-03-04T12:01:35;3.90;;;2.00;;
45114;SDS011;30877;43.706;10.780;2023-03-04T12:04:13;3.53;;;2.50;;
45114;SDS011;30877;43.706;10.780;2023-03-04T12:06:53;9.23;;;5.68;;
45114;SDS011;30877;43.706;10.780;2023-03-04T12:09:33;3.80;;;2.25;;
45114;SDS011;30877;43.706;10.780;2023-03-04T12:12:22;5.85;;;2.63;;
45114;SDS011;30877;43.706;10.780;2023-03-04T12:14:59;8.63;;;2.28;;
45114;SDS011;30877;43.706;10.780;2023-03-04T12:17:48;6.70;;;2.30;;
45114;SDS011;30877;43.706;10.780;2023-03-04T12:20:29;5.85;;;2.35;;
45114;SDS011;30877;43.706;10.780;2023-03-04T12:23:10;4.40;;;2.55;;
45114;SDS011;30877;43.706;10.780;2023-03-04T12:25:58;6.07;;;2.60;;
45114;SDS011;30877;43.706;10.780;2023-03-04T12:28:40;5.55;;;2.25;;
45114;SDS011;30877;43.706;10.780;2023-03-04T12:37:17;3.55;;;1.80;;
45114;SDS011;30877;43.706;10.780;2023-03-04T12:40:07;3.90;;;2.22;;
45114;SDS011;30877;43.706;10.780;2023-03-04T12:43:05;3.95;;;2.13;;
45114;SDS011;30877;43.706;10.780;2023-03-04T12:45:40;4.68;;;2.17;;
45114;SDS011;30877;43.706;10.780;2023-03-04T12:48:17;3.67;;;2.05;;
45114;SDS011;30877;43.706;10.780;2023-03-04T12:50:57;6.68;;;4.47;;
45114;SDS011;30877;43.706;10.780;2023-03-04T12:53:35;8.48;;;4.70;;
45114;SDS011;30877;43.706;10.780;2023-03-04T12:56:15;4.22;;;2.17;;
45114;SDS011;30877;43.706;10.780;2023-03-04T12:58:51;5.60;;;2.05;;
45114;SDS011;30877;43.706;10.780;2023-03-04T13:01:22;3.63;;;1.48;;
45114;SDS011;30877;43.706;10.780;2023-03-04T13:03:56;3.80;;;1.70;;
45114;SDS011;30877;43.706;10.780;2023-03-04T13:06:34;6.50;;;2.20;;
45114;SDS011;30877;43.706;10.780;2023-03-04T13:09:12;5.25;;;2.10;;
45114;SDS011;30877;43.706;10.780;2023-03-04T13:11:50;3.72;;;2.58;;
45114;SDS011;30877;43.706;10.780;2023-03-04T13:14:26;4.85;;;1.83;;
45114;SDS011;30877;43.706;10.780;2023-03-04T13:17:00;3.88;;;2.00;;
45114;SDS011;30877;43.706;10.780;2023-03-04T13:19:45;4.32;;;1.83;;
45114;SDS011;30877;43.706;10.780;2023-03-04T13:22:26;5.53;;;1.90;;
45114;SDS011;30877;43.706;10.780;2023-03-04T13:25:29;4.30;;;2.00;;
45114;SDS011;30877;43.706;10.780;2023-03-04T13:28:14;2.97;;;2.20;;
45114;SDS011;30877;43.706;10.780;2023-03-04T13:33:55;6.35;;;2.35;;
45114;SDS011;30877;43.706;10.780;2023-03-04T13:36:32;5.95;;;1.85;;
45114;SDS011;30877;43.706;10.780;2023-03-04T13:39:21;5.35;;;4.10;;
45114;SDS011;30877;43.706;10.780;2023-03-04T13:41:58;7.57;;;5.20;;
45114;SDS011;30877;43.706;10.780;2023-03-04T13:44:36;5.68;;;2.97;;
45114;SDS011;30877;43.706;10.780;2023-03-04T13:47:29;7.28;;;2.55;;
45114;SDS011;30877;43.706;10.780;2023-03-04T13:50:18;3.75;;;1.98;;
45114;SDS011;30877;43.706;10.780;2023-03-04T13:52:56;4.47;;;2.10;;
45114;SDS011;30877;43.706;10.780;2023-03-04T13:55:34;4.70;;;2.42;;
45114;SDS011;30877;43.706;10.780;2023-03-04T13:58:12;4.25;;;1.95;;
45114;SDS011;30877;43.706;10.780;2023-03-04T14:00:46;3.67;;;1.90;;
45114;SDS011;30877;43.706;10.780;2023-03-04T14:03:22;8.25;;;2.33;;
45114;SDS011;30877;43.706;10.780;2023-03-04T14:08:39;4.10;;;2.45;;
45114;SDS011;30877;43.706;10.780;2023-03-04T14:11:10;5.10;;;1.90;;
45114;SDS011;30877;43.706;10.780;2023-03-04T14:13:41;3.08;;;1.77;;
45114;SDS011;30877;43.706;10.780;2023-03-04T14:16:10;7.00;;;2.80;;
45114;SDS011;30877;43.706;10.780;2023-03-04T14:18:40;5.95;;;2.38;;
45114;SDS011;30877;43.706;10.780;2023-03-04T14:21:09;3.65;;;2.10;;
45114;SDS011;30877;43.706;10.780;2023-03-04T14:23:41;6.20;;;3.72;;
45114;SDS011;30877;43.706;10.780;2023-03-04T14:26:10;4.22;;;2.47;;
45114;SDS011;30877;43.706;10.780;2023-03-04T14:28:44;5.30;;;2.42;;
45114;SDS011;30877;43.706;10.780;2023-03-04T14:31:23;4.30;;;2.03;;
45114;SDS011;30877;43.706;10.780;2023-03-04T14:33:55;2.88;;;1.92;;
45114;SDS011;30877;43.706;10.780;2023-03-04T14:36:31;4.95;;;2.78;;
45114;SDS011;30877;43.706;10.780;2023-03-04T14:39:03;20.52;;;4.05;;
45114;SDS011;30877;43.706;10.780;2023-03-04T14:41:33;6.60;;;2.60;;
45114;SDS011;30877;43.706;10.780;2023-03-04T14:44:06;8.77;;;4.15;;
45114;SDS011;30877;43.706;10.780;2023-03-04T14:46:39;8.70;;;3.47;;
45114;SDS011;30877;43.706;10.780;2023-03-04T14:49:18;8.05;;;6.13;;
45114;SDS011;30877;43.706;10.780;2023-03-04T14:51:47;6.25;;;3.78;;
45114;SDS011;30877;43.706;10.780;2023-03-04T14:54:29;6.15;;;3.38;;
45114;SDS011;30877;43.706;10.780;2023-03-04T14:57:00;6.57;;;3.78;;
45114;SDS011;30877;43.706;10.780;2023-03-04T14:59:48;4.50;;;2.90;;
45114;SDS011;30877;43.706;10.780;2023-03-04T15:02:17;4.78;;;2.85;;
45114;SDS011;30877;43.706;10.780;2023-03-04T15:05:00;7.32;;;2.30;;
45114;SDS011;30877;43.706;10.780;2023-03-04T15:07:43;3.55;;;2.47;;
45114;SDS011;30877;43.706;10.780;2023-03-04T15:10:19;6.28;;;2.33;;
45114;SDS011;30877;43.706;10.780;2023-03-04T15:12:51;4.85;;;2.17;;
45114;SDS011;30877;43.706;10.780;2023-03-04T15:15:33;4.20;;;2.13;;